createdAt,value
2018-08-06T00:00:33.269Z,1.60
2018-08-06T00:03:02.739Z,1.20
2018-08-06T00:05:32.113Z,1.10
2018-08-06T00:08:01.385Z,1.50
2018-08-06T00:10:30.624Z,1.33
2018-08-06T00:12:59.943Z,1.47
2018-08-06T00:15:29.482Z,1.70
2018-08-06T00:17:59.723Z,1.73
2018-08-06T00:20:29.027Z,1.37
2018-08-06T00:22:58.296Z,1.20
2018-08-06T00:25:27.814Z,1.30
2018-08-06T00:27:57.541Z,1.73
2018-08-06T00:30:26.778Z,1.30
2018-08-06T00:32:56.087Z,1.27
2018-08-06T00:35:25.747Z,1.60
2018-08-06T00:37:54.983Z,1.30
2018-08-06T00:40:24.318Z,1.40
2018-08-06T00:42:53.601Z,1.23
2018-08-06T00:45:23.408Z,1.10
2018-08-06T00:47:52.611Z,1.27
2018-08-06T00:50:21.915Z,1.40
2018-08-06T00:52:50.926Z,1.57
2018-08-06T00:55:21.034Z,1.57
2018-08-06T00:57:50.309Z,1.43
2018-08-06T01:00:20.924Z,1.40
2018-08-06T01:02:50.277Z,1.17
2018-08-06T01:05:19.489Z,1.20
2018-08-06T01:07:48.714Z,1.40
2018-08-06T01:10:19.372Z,1.27
2018-08-06T01:12:48.912Z,1.10
2018-08-06T01:15:19.377Z,1.40
2018-08-06T01:17:48.660Z,1.20
2018-08-06T01:20:17.912Z,1.23
2018-08-06T01:22:47.312Z,2.07
2018-08-06T01:25:16.628Z,1.43
2018-08-06T01:27:45.656Z,0.97
2018-08-06T01:30:15.666Z,1.70
2018-08-06T01:32:44.959Z,1.50
2018-08-06T01:35:14.282Z,1.93
2018-08-06T01:37:43.583Z,1.50
2018-08-06T01:40:14.275Z,1.33
2018-08-06T01:42:43.668Z,1.90
2018-08-06T01:45:15.651Z,1.50
2018-08-06T01:47:45.123Z,1.77
2018-08-06T01:50:15.498Z,1.50
2018-08-06T01:52:44.722Z,1.27
2018-08-06T01:55:14.425Z,2.00
2018-08-06T01:57:43.726Z,2.13
2018-08-06T02:00:15.549Z,1.40
2018-08-06T02:02:44.937Z,2.03
2018-08-06T02:05:14.229Z,1.50
2018-08-06T02:07:44.144Z,1.90
2018-08-06T02:10:15.991Z,2.07
2018-08-06T02:12:46.156Z,1.93
2018-08-06T02:15:15.427Z,2.00
2018-08-06T02:17:44.710Z,2.30
2018-08-06T02:20:17.165Z,2.30
2018-08-06T02:22:48.107Z,1.97
2018-08-06T02:25:18.023Z,1.90
2018-08-06T02:27:47.352Z,2.30
2018-08-06T02:30:17.068Z,2.40
2018-08-06T02:32:46.759Z,2.03
2018-08-06T02:35:16.915Z,2.80
2018-08-06T02:37:46.452Z,2.40
2018-08-06T02:40:20.849Z,2.60
2018-08-06T02:42:50.338Z,2.80
2018-08-06T02:45:19.849Z,2.70
2018-08-06T02:47:49.391Z,2.90
2018-08-06T02:50:18.682Z,2.70
2018-08-06T02:52:47.988Z,2.50
2018-08-06T02:55:17.729Z,2.90
2018-08-06T02:57:46.963Z,2.90
2018-08-06T03:00:17.553Z,2.57
2018-08-06T03:02:47.992Z,3.10
2018-08-06T03:05:19.379Z,3.10
2018-08-06T03:07:48.811Z,3.23
2018-08-06T03:10:18.478Z,2.80
2018-08-06T03:12:48.009Z,3.77
2018-08-06T03:15:17.371Z,2.70
2018-08-06T03:17:47.129Z,2.90
2018-08-06T03:20:16.386Z,2.43
2018-08-06T03:22:45.675Z,2.70
2018-08-06T03:25:16.566Z,2.70
2018-08-06T03:27:46.159Z,3.23
2018-08-06T03:30:17.096Z,2.70
2018-08-06T03:32:47.622Z,2.50
2018-08-06T03:35:16.996Z,3.13
2018-08-06T03:37:46.679Z,3.20
2018-08-06T03:40:16.065Z,3.00
2018-08-06T03:42:45.319Z,2.80
2018-08-06T03:45:14.563Z,2.53
2018-08-06T03:47:44.178Z,2.67
2018-08-06T03:50:14.245Z,2.57
2018-08-06T03:52:44.032Z,3.03
2018-08-06T03:55:13.265Z,2.73
2018-08-06T03:57:42.862Z,3.17
2018-08-06T04:00:14.274Z,3.03
2018-08-06T04:02:44.347Z,2.77
2018-08-06T04:05:14.733Z,2.73
2018-08-06T04:07:44.002Z,2.97
2018-08-06T04:10:15.847Z,2.60
2018-08-06T04:12:45.483Z,2.43
2018-08-06T04:15:14.757Z,2.73
2018-08-06T04:17:44.410Z,2.57
2018-08-06T04:20:14.272Z,2.63
2018-08-06T04:22:44.113Z,2.70
2018-08-06T04:25:14.317Z,2.90
2018-08-06T04:27:43.614Z,2.60
2018-08-06T04:30:14.353Z,3.27
2018-08-06T04:32:44.870Z,2.83
2018-08-06T04:35:14.668Z,3.00
2018-08-06T04:37:44.874Z,2.57
2018-08-06T04:40:14.408Z,2.40
2018-08-06T04:42:43.964Z,2.93
2018-08-06T04:45:13.510Z,2.50
2018-08-06T04:47:43.067Z,2.60
2018-08-06T04:50:14.229Z,2.23
2018-08-06T04:52:44.783Z,2.10
2018-08-06T04:55:15.410Z,2.03
2018-08-06T04:57:44.725Z,1.63
2018-08-06T05:00:15.563Z,1.90
2018-08-06T05:02:45.099Z,1.87
2018-08-06T05:05:14.898Z,1.90
2018-08-06T05:07:44.264Z,2.00
2018-08-06T05:10:13.599Z,1.93
2018-08-06T05:12:42.830Z,1.60
2018-08-06T05:15:12.463Z,1.50
2018-08-06T05:17:41.757Z,1.47
2018-08-06T05:20:11.400Z,1.80
2018-08-06T05:22:41.071Z,1.67
2018-08-06T05:25:10.675Z,2.60
2018-08-06T05:27:39.969Z,1.57
2018-08-06T05:30:11.842Z,1.50
2018-08-06T05:32:41.349Z,1.90
2018-08-06T05:35:10.863Z,1.80
2018-08-06T05:37:40.481Z,1.97
2018-08-06T05:40:10.463Z,1.47
2018-08-06T05:42:39.990Z,1.83
2018-08-06T05:45:10.416Z,1.90
2018-08-06T05:47:39.754Z,1.93
2018-08-06T05:50:12.090Z,1.73
2018-08-06T05:52:41.370Z,2.00
2018-08-06T05:55:11.435Z,1.60
2018-08-06T05:57:41.656Z,1.83
2018-08-06T06:00:16.705Z,1.60
2018-08-06T06:02:47.011Z,1.50
2018-08-06T06:05:16.206Z,1.70
2018-08-06T06:07:45.513Z,1.30
2018-08-06T06:10:15.835Z,2.00
2018-08-06T06:12:45.151Z,1.63
2018-08-06T06:15:16.181Z,1.57
2018-08-06T06:17:45.490Z,1.73
2018-08-06T06:20:14.756Z,2.83
2018-08-06T06:22:44.332Z,1.30
2018-08-06T06:25:14.399Z,1.00
2018-08-06T06:27:44.175Z,1.00
2018-08-06T06:30:16.177Z,0.87
2018-08-06T06:32:46.051Z,1.30
2018-08-06T06:35:15.488Z,1.30
2018-08-06T06:37:45.015Z,0.90
2018-08-06T06:40:15.395Z,1.33
2018-08-06T06:42:44.743Z,1.50
2018-08-06T06:45:13.996Z,1.00
2018-08-06T06:47:43.136Z,1.70
2018-08-06T06:50:12.527Z,1.23
2018-08-06T06:52:41.842Z,1.20
2018-08-06T06:55:12.967Z,1.73
2018-08-06T06:57:43.135Z,1.40
2018-08-06T07:00:12.839Z,1.63
2018-08-06T07:02:42.731Z,1.90
2018-08-06T07:05:12.015Z,1.03
2018-08-06T07:07:41.416Z,2.27
2018-08-06T07:10:12.354Z,1.10
2018-08-06T07:12:41.739Z,1.30
2018-08-06T07:15:14.965Z,1.33
2018-08-06T07:17:47.238Z,1.67
2018-08-06T07:20:20.402Z,1.40
2018-08-06T07:22:50.503Z,1.13
2018-08-06T07:25:20.510Z,1.23
2018-08-06T07:27:49.823Z,1.20
2018-08-06T07:30:20.032Z,1.20
2018-08-06T07:32:49.858Z,1.17
2018-08-06T07:35:19.962Z,1.63
2018-08-06T07:37:50.559Z,2.07
2018-08-06T07:40:21.778Z,1.10
2018-08-06T07:42:52.269Z,1.13
2018-08-06T07:45:22.501Z,0.90
2018-08-06T07:47:52.613Z,1.00
2018-08-06T07:50:23.292Z,1.10
2018-08-06T07:52:55.080Z,0.90
2018-08-06T07:55:25.805Z,1.30
2018-08-06T07:57:55.640Z,1.27
2018-08-06T08:00:25.171Z,1.00
2018-08-06T08:02:54.543Z,1.20
2018-08-06T08:05:24.115Z,1.40
2018-08-06T08:07:53.771Z,1.00
2018-08-06T08:10:24.435Z,1.40
2018-08-06T08:12:53.731Z,1.10
2018-08-06T08:15:26.437Z,1.03
2018-08-06T08:17:57.821Z,1.07
2018-08-06T08:20:27.490Z,1.27
2018-08-06T08:22:57.554Z,1.00
2018-08-06T08:25:26.850Z,1.00
2018-08-06T08:27:56.476Z,1.20
2018-08-06T08:30:26.546Z,1.00
2018-08-06T08:32:56.226Z,0.70
2018-08-06T08:35:33.124Z,0.90
2018-08-06T08:38:02.467Z,1.07
2018-08-06T08:40:32.068Z,1.13
2018-08-06T08:43:01.686Z,0.90
2018-08-06T08:45:31.336Z,0.97
2018-08-06T08:48:00.650Z,0.80
2018-08-06T08:50:30.319Z,0.87
2018-08-06T08:52:59.612Z,1.20
2018-08-06T08:55:29.250Z,0.97
2018-08-06T08:57:58.528Z,0.97
2018-08-06T09:00:28.187Z,1.27
2018-08-06T09:02:57.800Z,0.77
2018-08-06T09:05:27.239Z,1.13
2018-08-06T09:07:56.836Z,0.90
2018-08-06T09:10:26.143Z,0.93
2018-08-06T09:12:55.763Z,0.70
2018-08-06T09:15:27.151Z,1.07
2018-08-06T09:17:56.563Z,0.70
2018-08-06T09:20:29.563Z,0.43
2018-08-06T09:22:59.165Z,0.50
2018-08-06T09:25:28.373Z,0.50
2018-08-06T09:27:58.093Z,0.50
2018-08-06T09:30:27.420Z,0.40
2018-08-06T09:32:57.979Z,0.50
2018-08-06T09:35:27.254Z,0.33
2018-08-06T09:37:56.539Z,0.40
2018-08-06T09:40:25.901Z,0.40
2018-08-06T09:42:55.774Z,0.40
2018-08-06T09:45:25.031Z,0.50
2018-08-06T09:47:55.220Z,0.37
2018-08-06T09:50:24.478Z,0.30
2018-08-06T09:52:54.506Z,0.40
2018-08-06T09:55:26.340Z,0.40
2018-08-06T09:57:55.970Z,0.57
2018-08-06T10:00:30.934Z,0.37
2018-08-06T10:03:02.080Z,0.40
2018-08-06T10:05:31.373Z,0.50
2018-08-06T10:08:00.939Z,0.40
2018-08-06T10:10:30.724Z,0.40
2018-08-06T10:13:00.010Z,0.30
2018-08-06T10:15:29.602Z,0.53
2018-08-06T10:17:58.830Z,0.67
2018-08-06T10:20:28.421Z,0.80
2018-08-06T10:22:58.097Z,0.50
2018-08-06T10:25:27.812Z,0.40
2018-08-06T10:27:57.325Z,0.40
2018-08-06T10:30:26.779Z,0.40
2018-08-06T10:32:56.261Z,0.47
2018-08-06T10:35:25.879Z,0.40
2018-08-06T10:37:55.935Z,0.57
2018-08-06T10:40:25.325Z,0.50
2018-08-06T10:42:54.602Z,0.60
2018-08-06T10:45:25.186Z,1.00
2018-08-06T10:47:54.660Z,0.70
2018-08-06T10:50:24.339Z,1.10
2018-08-06T10:52:53.543Z,0.87
2018-08-06T10:55:22.889Z,0.70
2018-08-06T10:57:52.158Z,0.80
2018-08-06T11:00:22.705Z,0.80
2018-08-06T11:02:52.182Z,0.90
2018-08-06T11:05:21.941Z,0.73
2018-08-06T11:07:51.244Z,0.90
2018-08-06T11:10:23.889Z,0.63
2018-08-06T11:12:53.557Z,0.60
2018-08-06T11:15:24.179Z,0.90
2018-08-06T11:17:53.588Z,0.90
2018-08-06T11:20:23.435Z,0.67
2018-08-06T11:22:53.129Z,1.17
2018-08-06T11:25:23.335Z,0.87
2018-08-06T11:27:52.709Z,0.80
2018-08-06T11:30:22.891Z,0.90
2018-08-06T11:32:53.166Z,0.80
2018-08-06T11:35:22.484Z,0.60
2018-08-06T11:37:52.281Z,0.83
2018-08-06T11:40:21.579Z,0.80
2018-08-06T11:42:50.836Z,0.80
2018-08-06T11:45:21.403Z,0.60
2018-08-06T11:47:50.710Z,0.93
2018-08-06T11:50:20.111Z,1.03
2018-08-06T11:52:49.309Z,0.90
2018-08-06T11:55:19.169Z,1.07
2018-08-06T11:57:48.503Z,0.80
2018-08-06T12:00:20.114Z,1.00
2018-08-06T12:02:49.403Z,0.90
2018-08-06T12:05:19.143Z,0.90
2018-08-06T12:07:48.694Z,1.10
2018-08-06T12:10:19.463Z,0.80
2018-08-06T12:12:49.823Z,1.00
2018-08-06T12:15:19.771Z,1.00
2018-08-06T12:17:49.260Z,1.00
2018-08-06T12:20:19.829Z,1.10
2018-08-06T12:22:50.351Z,0.80
2018-08-06T12:25:19.991Z,1.30
2018-08-06T12:27:49.812Z,0.80
2018-08-06T12:30:20.678Z,0.90
2018-08-06T12:32:51.576Z,0.80
2018-08-06T12:35:21.139Z,0.93
2018-08-06T12:37:50.409Z,0.90
2018-08-06T12:40:21.268Z,0.70
2018-08-06T12:42:50.574Z,0.90
2018-08-06T12:45:19.834Z,1.10
2018-08-06T12:47:49.092Z,0.80
2018-08-06T12:50:18.668Z,0.97
2018-08-06T12:52:47.896Z,1.20
2018-08-06T12:55:18.078Z,0.93
2018-08-06T12:57:47.368Z,1.17
2018-08-06T13:00:23.296Z,0.80
2018-08-06T13:02:52.918Z,0.60
2018-08-06T13:05:22.787Z,0.60
2018-08-06T13:07:52.516Z,0.90
2018-08-06T13:10:22.163Z,1.20
2018-08-06T13:12:51.475Z,1.10
2018-08-06T13:15:20.690Z,1.00
2018-08-06T13:17:50.195Z,1.00
2018-08-06T13:20:19.407Z,1.10
2018-08-06T13:22:48.687Z,1.40
2018-08-06T13:25:18.059Z,1.13
2018-08-06T13:27:47.324Z,1.07
2018-08-06T13:30:17.203Z,0.90
2018-08-06T13:32:46.742Z,1.00
2018-08-06T13:35:16.600Z,1.33
2018-08-06T13:37:45.858Z,1.20
2018-08-06T13:40:15.766Z,1.20
2018-08-06T13:42:45.351Z,1.03
2018-08-06T13:45:14.945Z,1.23
2018-08-06T13:47:44.738Z,1.47
2018-08-06T13:50:14.032Z,1.60
2018-08-06T13:52:43.687Z,1.20
2018-08-06T13:55:14.004Z,1.27
2018-08-06T13:57:43.842Z,1.50
2018-08-06T14:00:16.885Z,1.67
2018-08-06T14:02:46.501Z,1.50
2018-08-06T14:05:17.043Z,1.40
2018-08-06T14:07:47.345Z,1.30
2018-08-06T14:10:16.839Z,1.23
2018-08-06T14:12:46.939Z,1.43
2018-08-06T14:15:16.236Z,1.67
2018-08-06T14:17:45.561Z,1.30
2018-08-06T14:20:16.986Z,1.57
2018-08-06T14:22:46.239Z,1.40
2018-08-06T14:25:15.510Z,0.93
2018-08-06T14:27:44.798Z,1.10
2018-08-06T14:30:15.665Z,1.40
2018-08-06T14:32:45.283Z,1.13
2018-08-06T14:35:15.044Z,1.33
2018-08-06T14:37:44.660Z,1.10
2018-08-06T14:40:16.677Z,1.17
2018-08-06T14:42:46.229Z,1.17
2018-08-06T14:45:15.907Z,1.27
2018-08-06T14:47:45.646Z,1.30
2018-08-06T14:50:15.811Z,1.13
2018-08-06T14:52:45.038Z,1.30
2018-08-06T14:55:14.641Z,1.30
2018-08-06T14:57:44.280Z,1.30
2018-08-06T15:00:21.637Z,1.30
2018-08-06T15:02:52.068Z,1.20
2018-08-06T15:05:21.651Z,1.30
2018-08-06T15:07:50.968Z,0.90
2018-08-06T15:10:20.518Z,1.00
2018-08-06T15:12:50.091Z,1.37
2018-08-06T15:15:19.421Z,1.30
2018-08-06T15:17:48.441Z,1.10
2018-08-06T15:20:18.955Z,1.40
2018-08-06T15:22:48.522Z,1.00
2018-08-06T15:25:22.916Z,1.33
2018-08-06T15:27:52.279Z,1.20
2018-08-06T15:30:21.787Z,1.13
2018-08-06T15:32:51.334Z,1.10
2018-08-06T15:35:20.787Z,1.30
2018-08-06T15:37:50.067Z,1.10
2018-08-06T15:40:20.293Z,1.03
2018-08-06T15:42:49.565Z,1.50
2018-08-06T15:45:19.159Z,1.10
2018-08-06T15:47:48.769Z,1.30
2018-08-06T15:50:20.466Z,1.30
2018-08-06T15:52:49.734Z,1.30
2018-08-06T15:55:19.424Z,0.87
2018-08-06T15:57:48.727Z,1.13
2018-08-06T16:00:19.144Z,1.40
2018-08-06T16:02:48.744Z,1.17
2018-08-06T16:05:18.020Z,1.00
2018-08-06T16:07:47.316Z,1.40
2018-08-06T16:10:16.942Z,1.60
2018-08-06T16:12:47.023Z,1.23
2018-08-06T16:15:16.854Z,1.30
2018-08-06T16:17:46.547Z,1.27
2018-08-06T16:20:16.929Z,1.07
2018-08-06T16:22:46.265Z,1.50
2018-08-06T16:25:15.622Z,1.40
2018-08-06T16:27:44.931Z,1.23
2018-08-06T16:30:25.905Z,1.07
2018-08-06T16:32:55.186Z,1.10
2018-08-06T16:35:25.460Z,1.40
2018-08-06T16:37:57.071Z,1.23
2018-08-06T16:40:26.318Z,1.53
2018-08-06T16:42:55.613Z,1.10
2018-08-06T16:45:25.248Z,1.13
2018-08-06T16:47:54.391Z,1.30
2018-08-06T16:50:24.366Z,1.20
2018-08-06T16:52:54.094Z,1.10
2018-08-06T16:55:24.239Z,1.10
2018-08-06T16:57:53.476Z,1.47
2018-08-06T17:00:24.190Z,1.17
2018-08-06T17:02:53.835Z,0.93
2018-08-06T17:05:23.486Z,1.30
2018-08-06T17:07:52.850Z,1.10
2018-08-06T17:10:22.550Z,1.33
2018-08-06T17:12:53.620Z,1.20
2018-08-06T17:15:23.308Z,0.80
2018-08-06T17:17:55.012Z,1.00
2018-08-06T17:20:25.151Z,1.50
2018-08-06T17:22:54.666Z,1.20
2018-08-06T17:25:24.054Z,1.27
2018-08-06T17:27:53.334Z,0.97
2018-08-06T17:30:23.352Z,1.30
2018-08-06T17:32:52.886Z,1.13
2018-08-06T17:35:22.199Z,0.90
2018-08-06T17:37:51.811Z,1.00
2018-08-06T17:40:21.130Z,0.83
2018-08-06T17:42:50.713Z,1.10
2018-08-06T17:45:21.259Z,1.47
2018-08-06T17:47:50.944Z,1.10
2018-08-06T17:50:21.739Z,1.20
2018-08-06T17:52:51.875Z,1.20
2018-08-06T17:55:22.348Z,1.00
2018-08-06T17:57:51.635Z,1.37
2018-08-06T18:00:21.515Z,1.30
2018-08-06T18:02:51.119Z,1.40
2018-08-06T18:05:21.016Z,1.53
2018-08-06T18:07:50.581Z,1.20
2018-08-06T18:10:19.817Z,1.23
2018-08-06T18:12:49.388Z,1.00
2018-08-06T18:15:18.623Z,1.40
2018-08-06T18:17:49.025Z,1.07
2018-08-06T18:20:19.766Z,1.60
2018-08-06T18:22:49.252Z,1.10
2018-08-06T18:25:19.623Z,1.17
2018-08-06T18:27:49.858Z,1.50
2018-08-06T18:30:21.748Z,1.10
2018-08-06T18:32:51.148Z,1.27
2018-08-06T18:35:20.850Z,1.90
2018-08-06T18:37:50.191Z,1.10
2018-08-06T18:40:20.945Z,1.60
2018-08-06T18:42:50.675Z,1.33
2018-08-06T18:45:21.544Z,1.30
2018-08-06T18:47:51.706Z,1.50
2018-08-06T18:50:21.488Z,1.20
2018-08-06T18:52:51.583Z,2.00
2018-08-06T18:55:21.119Z,1.57
2018-08-06T18:57:50.908Z,1.40
2018-08-06T19:00:22.168Z,1.30
2018-08-06T19:02:52.391Z,2.00
2018-08-06T19:05:21.921Z,1.97
2018-08-06T19:07:52.051Z,2.10
2018-08-06T19:10:21.859Z,2.23
2018-08-06T19:12:56.809Z,1.70
2018-08-06T19:15:26.235Z,1.60
2018-08-06T19:18:01.161Z,1.60
2018-08-06T19:20:31.458Z,1.50
2018-08-06T19:23:01.029Z,1.83
2018-08-06T19:25:32.068Z,1.33
2018-08-06T19:28:01.410Z,1.40
2018-08-06T19:30:35.901Z,1.83
2018-08-06T19:33:06.347Z,2.90
2018-08-06T19:35:35.652Z,4.50
2018-08-06T19:38:04.978Z,3.03
2018-08-06T19:40:34.231Z,1.83
2018-08-06T19:43:09.091Z,2.20
2018-08-06T19:45:38.326Z,1.70
2018-08-06T19:48:07.650Z,2.00
2018-08-06T19:50:41.110Z,2.33
2018-08-06T19:53:10.878Z,1.70
2018-08-06T19:55:45.739Z,2.30
2018-08-06T19:58:15.776Z,1.93
2018-08-06T20:00:45.674Z,2.30
2018-08-06T20:03:15.323Z,1.80
2018-08-06T20:05:44.605Z,2.50
2018-08-06T20:08:13.905Z,2.23
2018-08-06T20:10:43.171Z,2.33
2018-08-06T20:13:12.743Z,2.73
2018-08-06T20:15:42.379Z,2.63
2018-08-06T20:18:11.656Z,2.23
2018-08-06T20:20:41.292Z,2.00
2018-08-06T20:23:11.223Z,1.50
2018-08-06T20:25:40.931Z,1.30
2018-08-06T20:28:11.058Z,1.40
2018-08-06T20:30:41.107Z,1.57
2018-08-06T20:33:11.091Z,1.40
2018-08-06T20:35:40.426Z,1.37
2018-08-06T20:38:09.715Z,1.60
2018-08-06T20:40:39.915Z,1.40
2018-08-06T20:43:09.531Z,1.50
2018-08-06T20:45:38.776Z,1.47
2018-08-06T20:48:08.762Z,1.50
2018-08-06T20:50:38.022Z,1.43
2018-08-06T20:53:07.291Z,1.40
2018-08-06T20:55:36.960Z,1.67
2018-08-06T20:58:07.623Z,1.80
2018-08-06T21:00:37.260Z,1.43
2018-08-06T21:03:07.816Z,1.70
2018-08-06T21:05:38.111Z,1.90
2018-08-06T21:08:07.396Z,2.70
2018-08-06T21:10:37.572Z,2.80
2018-08-06T21:13:06.960Z,2.80
2018-08-06T21:15:36.495Z,1.40
2018-08-06T21:18:07.020Z,1.60
2018-08-06T21:20:36.267Z,1.17
2018-08-06T21:23:05.511Z,1.40
2018-08-06T21:25:35.703Z,1.40
2018-08-06T21:28:05.756Z,1.70
2018-08-06T21:30:35.318Z,1.50
2018-08-06T21:33:04.690Z,2.17
2018-08-06T21:35:35.064Z,1.43
2018-08-06T21:38:04.383Z,1.60
2018-08-06T21:40:33.721Z,1.40
2018-08-06T21:43:03.381Z,1.40
2018-08-06T21:45:32.831Z,1.63
2018-08-06T21:48:02.463Z,1.50
2018-08-06T21:50:32.557Z,1.23
2018-08-06T21:53:02.576Z,1.20
2018-08-06T21:55:32.329Z,1.50
2018-08-06T21:58:02.277Z,1.40
2018-08-06T22:00:36.492Z,1.60
2018-08-06T22:03:10.589Z,1.90
2018-08-06T22:05:40.139Z,1.50
2018-08-06T22:08:10.002Z,1.23
2018-08-06T22:10:39.390Z,1.27
2018-08-06T22:13:09.501Z,1.57
2018-08-06T22:15:39.233Z,1.67
2018-08-06T22:18:11.612Z,1.53
2018-08-06T22:20:41.483Z,1.40
2018-08-06T22:23:11.081Z,1.40
2018-08-06T22:25:40.479Z,1.37
2018-08-06T22:28:12.062Z,1.67
2018-08-06T22:30:41.456Z,1.67
2018-08-06T22:33:11.097Z,1.67
2018-08-06T22:35:40.924Z,1.60
2018-08-06T22:38:10.918Z,1.40
2018-08-06T22:40:40.289Z,1.90
2018-08-06T22:43:10.104Z,1.83
2018-08-06T22:45:39.410Z,1.67
2018-08-06T22:48:08.847Z,1.70
2018-08-06T22:50:39.118Z,1.93
2018-08-06T22:53:08.668Z,1.80
2018-08-06T22:55:55.125Z,1.40
2018-08-06T22:58:24.457Z,1.83
2018-08-06T23:00:53.946Z,1.70
2018-08-06T23:03:23.641Z,1.77
2018-08-06T23:05:53.002Z,2.30
2018-08-06T23:08:22.528Z,2.00
2018-08-06T23:10:52.464Z,2.37
2018-08-06T23:13:22.316Z,2.10
2018-08-06T23:15:51.646Z,2.40
2018-08-06T23:18:21.004Z,1.63
2018-08-06T23:20:50.792Z,1.50
2018-08-06T23:23:20.119Z,1.50
2018-08-06T23:25:49.973Z,2.43
2018-08-06T23:28:19.908Z,1.63
2018-08-06T23:30:49.045Z,2.10
2018-08-06T23:33:18.751Z,1.60
2018-08-06T23:35:48.259Z,1.93
2018-08-06T23:38:17.953Z,1.47
2018-08-06T23:40:47.261Z,1.50
2018-08-06T23:43:17.195Z,1.50
2018-08-06T23:45:46.536Z,2.37
2018-08-06T23:48:16.189Z,1.67
2018-08-06T23:50:45.833Z,1.50
2018-08-06T23:53:15.431Z,1.80
2018-08-06T23:55:44.769Z,1.80
2018-08-06T23:58:14.103Z,1.50
